createdAt,value
2018-03-16T00:00:33.995Z,99884.13
2018-03-16T00:03:02.303Z,99883.30
2018-03-16T00:05:30.611Z,99884.63
2018-03-16T00:07:58.941Z,99885.34
2018-03-16T00:10:27.248Z,99892.09
2018-03-16T00:12:55.547Z,99892.50
2018-03-16T00:15:23.884Z,99891.78
2018-03-16T00:17:52.187Z,99891.38
2018-03-16T00:20:20.503Z,99892.30
2018-03-16T00:22:48.904Z,99897.09
2018-03-16T00:25:17.981Z,99890.56
2018-03-16T00:27:46.292Z,99893.52
2018-03-16T00:30:15.380Z,99892.30
2018-03-16T00:32:44.478Z,99904.97
2018-03-16T00:35:13.617Z,99907.12
2018-03-16T00:37:41.865Z,99907.22
2018-03-16T00:40:10.939Z,99905.68
2018-03-16T00:42:39.246Z,99902.52
2018-03-16T00:45:08.352Z,99907.93
2018-03-16T00:47:37.441Z,99912.73
2018-03-16T00:50:06.524Z,99913.14
2018-03-16T00:52:34.831Z,99917.23
2018-03-16T00:55:03.330Z,99907.93
2018-03-16T00:57:31.633Z,99910.89
2018-03-16T01:00:00.039Z,99907.73
2018-03-16T01:02:29.053Z,99912.13
2018-03-16T01:04:57.352Z,99912.73
2018-03-16T01:07:26.425Z,99912.42
2018-03-16T01:09:54.751Z,99912.63
2018-03-16T01:12:23.218Z,99907.93
2018-03-16T01:14:51.616Z,99907.31
2018-03-16T01:17:19.920Z,99908.13
2018-03-16T01:19:48.230Z,99909.56
2018-03-16T01:22:17.319Z,99917.03
2018-03-16T01:24:46.448Z,99916.82
2018-03-16T01:27:15.574Z,99914.88
2018-03-16T01:29:43.892Z,99921.62
2018-03-16T01:32:12.392Z,99910.17
2018-03-16T01:34:41.208Z,99914.70
2018-03-16T01:37:10.272Z,99919.48
2018-03-16T01:39:38.586Z,99924.00
2018-03-16T01:42:07.662Z,99922.54
2018-03-16T01:44:37.519Z,99925.33
2018-03-16T01:47:05.830Z,99928.49
2018-03-16T01:49:34.162Z,99926.05
2018-03-16T01:52:03.256Z,99928.29
2018-03-16T01:54:32.345Z,99933.20
2018-03-16T01:57:01.452Z,99925.43
2018-03-16T01:59:30.512Z,99930.03
2018-03-16T02:01:58.824Z,99926.14
2018-03-16T02:04:27.890Z,99929.52
2018-03-16T02:06:56.200Z,99918.48
2018-03-16T02:09:25.336Z,99923.99
2018-03-16T02:11:53.629Z,99921.12
2018-03-16T02:14:21.942Z,99927.88
2018-03-16T02:16:50.266Z,99925.83
2018-03-16T02:19:18.575Z,99929.91
2018-03-16T02:21:46.893Z,99930.42
2018-03-16T02:24:15.970Z,99919.80
2018-03-16T02:26:44.284Z,99917.72
2018-03-16T02:29:13.352Z,99924.77
2018-03-16T02:31:41.658Z,99926.13
2018-03-16T02:34:11.546Z,99931.33
2018-03-16T02:36:39.857Z,99934.59
2018-03-16T02:39:08.941Z,99939.70
2018-03-16T02:41:37.328Z,99938.77
2018-03-16T02:44:06.404Z,99942.86
2018-03-16T02:46:34.738Z,99945.10
2018-03-16T02:49:03.047Z,99948.58
2018-03-16T02:51:31.373Z,99946.43
2018-03-16T02:53:59.686Z,99954.63
2018-03-16T02:56:28.116Z,99947.37
2018-03-16T02:58:56.430Z,99944.91
2018-03-16T03:01:25.502Z,99943.28
2018-03-16T03:03:53.807Z,99951.25
2018-03-16T03:06:23.013Z,99948.08
2018-03-16T03:08:52.173Z,99945.42
2018-03-16T03:11:20.498Z,99945.31
2018-03-16T03:13:49.572Z,99951.13
2018-03-16T03:16:17.872Z,99944.48
2018-03-16T03:18:46.965Z,99940.50
2018-03-16T03:21:16.028Z,99943.98
2018-03-16T03:23:44.324Z,99947.14
2018-03-16T03:26:12.618Z,99955.20
2018-03-16T03:28:41.698Z,99954.52
2018-03-16T03:31:10.025Z,99960.23
2018-03-16T03:33:38.319Z,99952.47
2018-03-16T03:36:06.639Z,99961.77
2018-03-16T03:38:34.968Z,99961.77
2018-03-16T03:41:04.124Z,99961.26
2018-03-16T03:43:32.429Z,99970.75
2018-03-16T03:46:00.761Z,99976.27
2018-03-16T03:48:29.068Z,99966.36
2018-03-16T03:50:58.124Z,99977.19
2018-03-16T03:53:26.403Z,99976.47
2018-03-16T03:55:54.708Z,99978.62
2018-03-16T03:58:23.027Z,99979.02
2018-03-16T04:00:52.097Z,99985.66
2018-03-16T04:03:21.827Z,99986.68
2018-03-16T04:05:50.927Z,99990.47
2018-03-16T04:08:19.964Z,99991.08
2018-03-16T04:10:48.308Z,99998.12
2018-03-16T04:13:17.383Z,99996.59
2018-03-16T04:15:45.684Z,100001.27
2018-03-16T04:18:14.756Z,100007.49
2018-03-16T04:20:43.056Z,100012.94
2018-03-16T04:23:12.144Z,100012.94
2018-03-16T04:25:40.447Z,100015.89
2018-03-16T04:28:09.510Z,100022.94
2018-03-16T04:30:37.812Z,100018.55
2018-03-16T04:33:06.897Z,100022.64
2018-03-16T04:35:35.207Z,100029.58
2018-03-16T04:38:04.277Z,100028.66
2018-03-16T04:40:33.478Z,100035.30
2018-03-16T04:43:01.829Z,100036.94
2018-03-16T04:45:30.164Z,100037.85
2018-03-16T04:47:59.223Z,100038.14
2018-03-16T04:50:27.529Z,100041.41
2018-03-16T04:52:56.610Z,100043.05
2018-03-16T04:55:25.075Z,100040.39
2018-03-16T04:57:53.613Z,100047.23
2018-03-16T05:00:22.850Z,100045.28
2018-03-16T05:02:51.153Z,100047.83
2018-03-16T05:05:19.459Z,100053.14
2018-03-16T05:07:47.768Z,100052.83
2018-03-16T05:10:16.082Z,100057.72
2018-03-16T05:12:44.405Z,100057.30
2018-03-16T05:15:13.505Z,100066.28
2018-03-16T05:17:41.818Z,100061.80
2018-03-16T05:20:10.209Z,100069.66
2018-03-16T05:22:38.499Z,100077.12
2018-03-16T05:25:06.963Z,100083.34
2018-03-16T05:27:35.421Z,100077.12
2018-03-16T05:30:04.473Z,100080.09
2018-03-16T05:32:32.777Z,100089.68
2018-03-16T05:35:01.091Z,100088.84
2018-03-16T05:37:30.156Z,100097.41
2018-03-16T05:39:58.474Z,100097.70
2018-03-16T05:42:26.788Z,100098.30
2018-03-16T05:44:55.085Z,100100.05
2018-03-16T05:47:23.383Z,100100.77
2018-03-16T05:49:51.705Z,100099.73
2018-03-16T05:52:20.005Z,100102.78
2018-03-16T05:54:48.324Z,100112.36
2018-03-16T05:57:16.638Z,100120.70
2018-03-16T05:59:44.958Z,100116.00
2018-03-16T06:02:13.294Z,100119.16
2018-03-16T06:04:41.604Z,100116.64
2018-03-16T06:07:09.928Z,100125.10
2018-03-16T06:09:38.358Z,100121.94
2018-03-16T06:12:06.662Z,100129.88
2018-03-16T06:14:34.984Z,100132.63
2018-03-16T06:17:04.074Z,100131.81
2018-03-16T06:19:32.378Z,100141.70
2018-03-16T06:22:00.768Z,100144.57
2018-03-16T06:24:29.071Z,100144.98
2018-03-16T06:26:57.476Z,100151.93
2018-03-16T06:29:25.739Z,100153.57
2018-03-16T06:31:54.103Z,100150.41
2018-03-16T06:34:22.399Z,100152.05
2018-03-16T06:36:50.737Z,100165.41
2018-03-16T06:39:19.885Z,100168.89
2018-03-16T06:41:48.156Z,100173.69
2018-03-16T06:44:16.477Z,100173.81
2018-03-16T06:46:44.789Z,100179.94
2018-03-16T06:49:13.116Z,100179.34
2018-03-16T06:51:41.581Z,100177.72
2018-03-16T06:54:09.952Z,100182.65
2018-03-16T06:56:38.250Z,100183.98
2018-03-16T06:59:06.566Z,100182.23
2018-03-16T07:01:36.375Z,100192.25
2018-03-16T07:04:04.689Z,100194.71
2018-03-16T07:06:32.995Z,100193.19
2018-03-16T07:09:01.295Z,100198.62
2018-03-16T07:11:29.598Z,100203.73
2018-03-16T07:13:57.900Z,100215.30
2018-03-16T07:16:26.961Z,100212.16
2018-03-16T07:18:55.269Z,100208.71
2018-03-16T07:21:24.405Z,100214.45
2018-03-16T07:23:52.783Z,100219.69
2018-03-16T07:26:21.108Z,100220.81
2018-03-16T07:28:49.424Z,100236.17
2018-03-16T07:31:18.515Z,100233.27
2018-03-16T07:33:46.831Z,100243.20
2018-03-16T07:36:15.119Z,100248.44
2018-03-16T07:38:43.445Z,100257.77
2018-03-16T07:41:12.572Z,100249.37
2018-03-16T07:43:40.969Z,100256.34
2018-03-16T07:46:15.024Z,100255.66
2018-03-16T07:48:43.338Z,100262.02
2018-03-16T07:51:12.413Z,100272.64
2018-03-16T07:53:41.489Z,100259.78
2018-03-16T07:56:09.831Z,100266.45
2018-03-16T07:58:38.221Z,100276.38
2018-03-16T08:01:06.560Z,100278.52
2018-03-16T08:03:34.953Z,100280.37
2018-03-16T08:06:04.031Z,100288.16
2018-03-16T08:08:32.352Z,100283.66
2018-03-16T08:11:00.658Z,100283.38
2018-03-16T08:13:29.079Z,100291.98
2018-03-16T08:15:58.148Z,100286.40
2018-03-16T08:18:26.613Z,100289.78
2018-03-16T08:20:54.919Z,100296.13
2018-03-16T08:23:23.316Z,100298.71
2018-03-16T08:25:52.387Z,100300.28
2018-03-16T08:28:20.684Z,100304.25
2018-03-16T08:30:48.977Z,100303.03
2018-03-16T08:33:18.042Z,100296.07
2018-03-16T08:35:46.335Z,100313.70
2018-03-16T08:38:14.657Z,100310.42
2018-03-16T08:40:43.634Z,100307.02
2018-03-16T08:43:11.957Z,100302.42
2018-03-16T08:45:40.257Z,100312.66
2018-03-16T08:48:08.615Z,100319.17
2018-03-16T08:50:37.007Z,100319.83
2018-03-16T08:53:05.395Z,100328.00
2018-03-16T08:55:33.691Z,100322.97
2018-03-16T08:58:02.042Z,100324.62
2018-03-16T09:00:30.367Z,100326.67
2018-03-16T09:02:58.668Z,100328.37
2018-03-16T09:05:28.483Z,100325.41
2018-03-16T09:07:57.563Z,100325.88
2018-03-16T09:10:25.905Z,100327.17
2018-03-16T09:12:54.227Z,100327.88
2018-03-16T09:15:22.549Z,100328.18
2018-03-16T09:17:51.613Z,100332.66
2018-03-16T09:20:19.947Z,100333.47
2018-03-16T09:22:48.247Z,100335.57
2018-03-16T09:25:17.227Z,100338.91
2018-03-16T09:27:45.527Z,100349.86
2018-03-16T09:30:14.563Z,100345.41
2018-03-16T09:32:43.005Z,100344.48
2018-03-16T09:35:11.307Z,100345.28
2018-03-16T09:37:39.674Z,100354.41
2018-03-16T09:40:07.989Z,100358.00
2018-03-16T09:42:37.079Z,100362.44
2018-03-16T09:45:05.396Z,100361.97
2018-03-16T09:47:33.703Z,100362.09
2018-03-16T09:50:02.038Z,100365.42
2018-03-16T09:52:31.099Z,100366.45
2018-03-16T09:55:17.281Z,100367.38
2018-03-16T09:57:45.601Z,100374.16
2018-03-16T10:00:14.665Z,100383.24
2018-03-16T10:02:42.975Z,100382.82
2018-03-16T10:05:11.283Z,100392.56
2018-03-16T10:07:39.591Z,100391.34
2018-03-16T10:10:07.921Z,100390.27
2018-03-16T10:12:37.055Z,100400.84
2018-03-16T10:15:05.379Z,100398.38
2018-03-16T10:17:36.237Z,100400.53
2018-03-16T10:20:05.361Z,100404.02
2018-03-16T10:22:33.812Z,100403.66
2018-03-16T10:25:04.059Z,100401.70
2018-03-16T10:27:36.422Z,100403.50
2018-03-16T10:30:05.065Z,100406.92
2018-03-16T10:32:33.748Z,100412.11
2018-03-16T10:35:03.101Z,100424.82
2018-03-16T10:37:32.397Z,100430.09
2018-03-16T10:40:02.519Z,100426.38
2018-03-16T10:42:31.831Z,100431.73
2018-03-16T10:45:00.921Z,100430.27
2018-03-16T10:47:30.036Z,100440.33
2018-03-16T10:49:59.147Z,100443.60
2018-03-16T10:52:27.529Z,100441.65
2018-03-16T10:54:55.895Z,100444.30
2018-03-16T10:57:24.978Z,100449.25
2018-03-16T10:59:53.286Z,100461.40
2018-03-16T11:02:21.797Z,100453.95
2018-03-16T11:04:55.701Z,100455.01
2018-03-16T11:10:24.831Z,100468.83
2018-03-16T11:12:55.182Z,100477.87
2018-03-16T11:15:24.511Z,100476.99
2018-03-16T11:17:52.833Z,100481.77
2018-03-16T11:20:21.141Z,100478.09
2018-03-16T11:22:49.473Z,100479.41
2018-03-16T11:25:17.827Z,100487.37
2018-03-16T11:27:46.931Z,100487.45
2018-03-16T11:30:15.288Z,100485.02
2018-03-16T11:32:43.609Z,100482.92
2018-03-16T11:35:11.925Z,100481.17
2018-03-16T11:37:40.276Z,100483.51
2018-03-16T11:40:08.583Z,100487.75
2018-03-16T11:42:36.910Z,100497.63
2018-03-16T11:45:05.240Z,100499.82
2018-03-16T11:47:33.544Z,100502.07
2018-03-16T11:50:01.868Z,100497.00
2018-03-16T11:52:30.174Z,100497.25
2018-03-16T11:54:58.483Z,100501.76
2018-03-16T11:57:26.791Z,100505.89
2018-03-16T11:59:55.866Z,100506.19
2018-03-16T12:02:24.211Z,100504.30
2018-03-16T12:04:52.707Z,100510.37
2018-03-16T12:07:21.067Z,100515.91
2018-03-16T12:09:49.367Z,100512.42
2018-03-16T12:12:17.692Z,100515.55
2018-03-16T12:14:46.848Z,100520.69
2018-03-16T12:17:15.247Z,100529.48
2018-03-16T12:19:43.565Z,100525.27
2018-03-16T12:22:15.278Z,100533.39
2018-03-16T12:24:45.165Z,100532.16
2018-03-16T12:27:13.956Z,100533.09
2018-03-16T12:29:43.108Z,100534.91
2018-03-16T12:32:12.223Z,100530.19
2018-03-16T12:34:41.335Z,100528.69
2018-03-16T12:37:11.411Z,100535.88
2018-03-16T12:39:40.826Z,100535.36
2018-03-16T12:42:09.630Z,100538.23
2018-03-16T12:44:38.023Z,100536.14
2018-03-16T12:47:07.141Z,100535.14
2018-03-16T12:49:35.470Z,100536.63
2018-03-16T12:52:03.768Z,100540.02
2018-03-16T12:54:33.456Z,100536.85
2018-03-16T12:57:03.005Z,100532.98
2018-03-16T12:59:32.094Z,100539.58
2018-03-16T13:02:01.188Z,100532.64
2018-03-16T13:04:30.276Z,100541.21
2018-03-16T13:06:58.610Z,100542.28
2018-03-16T13:09:26.926Z,100539.17
2018-03-16T13:11:55.242Z,100542.26
2018-03-16T13:14:24.304Z,100542.67
2018-03-16T13:16:52.618Z,100537.84
2018-03-16T13:19:22.449Z,100545.11
2018-03-16T13:21:50.767Z,100547.39
2018-03-16T13:24:19.131Z,100552.02
2018-03-16T13:26:47.457Z,100555.61
2018-03-16T13:29:15.765Z,100555.33
2018-03-16T13:31:44.835Z,100557.56
2018-03-16T13:34:13.169Z,100562.09
2018-03-16T13:36:41.487Z,100562.48
2018-03-16T13:39:09.815Z,100568.02
2018-03-16T13:41:38.142Z,100570.37
2018-03-16T13:44:06.445Z,100576.17
2018-03-16T13:46:34.780Z,100579.39
2018-03-16T13:49:03.090Z,100580.16
2018-03-16T13:51:31.425Z,100578.22
2018-03-16T13:53:59.844Z,100590.57
2018-03-16T13:56:28.153Z,100578.39
2018-03-16T13:58:56.476Z,100583.34
2018-03-16T14:01:24.799Z,100590.77
2018-03-16T14:03:53.137Z,100596.00
2018-03-16T14:06:21.455Z,100604.02
2018-03-16T14:08:49.773Z,100603.20
2018-03-16T14:11:18.863Z,100613.67
2018-03-16T14:13:48.189Z,100611.41
2018-03-16T14:16:16.524Z,100615.11
2018-03-16T14:18:45.599Z,100616.45
2018-03-16T14:21:13.908Z,100628.25
2018-03-16T14:23:42.242Z,100627.00
2018-03-16T14:26:10.555Z,100628.73
2018-03-16T14:28:38.876Z,100634.86
2018-03-16T14:31:07.971Z,100624.56
2018-03-16T14:33:37.056Z,100638.95
2018-03-16T14:36:05.367Z,100633.77
2018-03-16T14:38:33.691Z,100636.38
2018-03-16T14:41:02.012Z,100647.30
2018-03-16T14:43:31.764Z,100645.03
2018-03-16T14:46:00.080Z,100650.19
2018-03-16T14:48:28.468Z,100656.88
2018-03-16T14:50:57.652Z,100660.94
2018-03-16T14:53:25.966Z,100658.60
2018-03-16T14:55:55.028Z,100658.34
2018-03-16T14:58:23.374Z,100657.08
2018-03-16T15:00:51.671Z,100659.45
2018-03-16T15:03:19.975Z,100653.69
2018-03-16T15:05:48.344Z,100657.17
2018-03-16T15:08:16.717Z,100665.25
2018-03-16T15:10:46.520Z,100669.39
2018-03-16T15:13:14.896Z,100679.45
2018-03-16T15:15:43.288Z,100683.97
2018-03-16T15:18:11.619Z,100673.70
2018-03-16T15:20:39.918Z,100676.60
2018-03-16T15:23:08.995Z,100677.10
2018-03-16T15:25:38.076Z,100682.88
2018-03-16T15:28:06.386Z,100678.95
2018-03-16T15:30:35.463Z,100682.98
2018-03-16T15:33:04.929Z,100687.61
2018-03-16T15:35:33.247Z,100690.91
2018-03-16T15:38:02.738Z,100686.64
2018-03-16T15:40:31.060Z,100691.30
2018-03-16T15:43:00.160Z,100698.09
2018-03-16T15:45:29.236Z,100691.17
2018-03-16T15:47:57.562Z,100693.96
2018-03-16T15:50:25.886Z,100696.80
2018-03-16T15:52:54.220Z,100703.97
2018-03-16T15:55:22.536Z,100699.47
2018-03-16T15:57:50.861Z,100701.83
2018-03-16T16:00:19.946Z,100704.87
2018-03-16T16:02:49.163Z,100701.33
2018-03-16T16:05:18.350Z,100712.63
2018-03-16T16:07:47.446Z,100712.75
2018-03-16T16:10:16.524Z,100718.22
2018-03-16T16:12:44.910Z,100715.63
2018-03-16T16:15:13.249Z,100714.36
2018-03-16T16:17:41.590Z,100718.20
2018-03-16T16:20:10.944Z,100731.53
2018-03-16T16:22:39.281Z,100729.38
2018-03-16T16:25:08.480Z,100743.00
2018-03-16T16:27:37.574Z,100737.38
2018-03-16T16:30:05.936Z,100747.01
2018-03-16T16:32:34.259Z,100747.19
2018-03-16T16:35:02.598Z,100752.22
2018-03-16T16:37:30.919Z,100762.52
2018-03-16T16:39:59.253Z,100763.03
2018-03-16T16:42:27.737Z,100757.06
2018-03-16T16:44:56.059Z,100775.09
2018-03-16T16:47:25.166Z,100768.25
2018-03-16T16:52:21.118Z,100771.13
2018-03-16T16:54:49.451Z,100783.81
2018-03-16T16:57:17.774Z,100782.30
2018-03-16T16:59:46.143Z,100781.81
2018-03-16T17:02:14.488Z,100800.20
2018-03-16T17:04:44.821Z,100797.47
2018-03-16T17:07:13.154Z,100799.71
2018-03-16T17:09:41.580Z,100800.17
2018-03-16T17:12:09.919Z,100810.86
2018-03-16T17:14:38.262Z,100809.83
2018-03-16T17:17:07.364Z,100811.08
2018-03-16T17:19:36.628Z,100818.45
2018-03-16T17:22:04.993Z,100819.48
2018-03-16T17:24:33.314Z,100818.58
2018-03-16T17:27:01.668Z,100831.35
2018-03-16T17:29:30.037Z,100828.70
2018-03-16T17:31:58.365Z,100827.41
2018-03-16T17:34:27.448Z,100840.81
2018-03-16T17:36:55.760Z,100838.98
2018-03-16T17:39:24.884Z,100839.92
2018-03-16T17:41:53.433Z,100849.84
2018-03-16T17:44:22.589Z,100841.53
2018-03-16T17:46:50.922Z,100850.41
2018-03-16T17:49:20.021Z,100851.31
2018-03-16T17:51:49.132Z,100858.16
2018-03-16T17:54:17.483Z,100862.41
2018-03-16T17:56:45.846Z,100862.97
2018-03-16T17:59:14.360Z,100865.05
2018-03-16T18:01:42.708Z,100861.06
2018-03-16T18:04:11.128Z,100869.16
2018-03-16T18:06:40.216Z,100874.53
2018-03-16T18:09:09.317Z,100883.95
2018-03-16T18:11:38.435Z,100886.59
2018-03-16T18:14:06.780Z,100888.02
2018-03-16T18:16:35.145Z,100890.25
2018-03-16T18:19:03.496Z,100895.02
2018-03-16T18:21:31.897Z,100903.22
2018-03-16T18:24:00.273Z,100900.23
2018-03-16T18:26:28.684Z,100892.97
2018-03-16T18:28:57.855Z,100894.20
2018-03-16T18:31:26.200Z,100897.66
2018-03-16T18:33:55.301Z,100899.38
2018-03-16T18:36:24.388Z,100902.84
2018-03-16T18:38:53.532Z,100905.41
2018-03-16T18:41:21.836Z,100905.88
2018-03-16T18:43:50.338Z,100903.88
2018-03-16T18:46:19.628Z,100906.45
2018-03-16T18:48:47.969Z,100900.24
2018-03-16T18:51:16.330Z,100913.70
2018-03-16T18:53:45.512Z,100899.80
2018-03-16T18:56:16.085Z,100915.18
2018-03-16T18:58:46.008Z,100914.50
2018-03-16T19:01:17.899Z,100919.27
2018-03-16T19:03:47.151Z,100917.54
2018-03-16T19:06:15.520Z,100929.09
2018-03-16T19:08:44.621Z,100927.11
2018-03-16T19:11:13.726Z,100933.22
2018-03-16T19:13:42.222Z,100927.91
2018-03-16T19:16:10.695Z,100941.59
2018-03-16T19:18:39.225Z,100942.80
2018-03-16T19:21:07.556Z,100926.66
2018-03-16T19:23:36.754Z,100947.53
2018-03-16T19:26:05.127Z,100942.25
2018-03-16T19:28:34.263Z,100943.04
2018-03-16T19:31:02.612Z,100939.05
2018-03-16T19:33:31.733Z,100948.86
2018-03-16T19:36:00.126Z,100952.17
2018-03-16T19:38:28.503Z,100954.89
2018-03-16T19:40:56.854Z,100951.56
2018-03-16T19:43:25.997Z,100959.72
2018-03-16T19:45:54.946Z,100960.70
2018-03-16T19:48:24.982Z,100968.16
2018-03-16T19:50:53.341Z,100960.58
2018-03-16T19:53:22.838Z,100966.68
2018-03-16T19:55:51.186Z,100968.80
2018-03-16T19:58:19.916Z,100965.59
2018-03-16T20:00:48.291Z,100971.55
2018-03-16T20:03:16.752Z,100979.87
2018-03-16T20:05:46.013Z,100984.97
2018-03-16T20:08:14.687Z,100993.88
2018-03-16T20:10:43.800Z,100988.17
2018-03-16T20:13:12.358Z,100983.69
2018-03-16T20:15:41.492Z,100989.80
2018-03-16T20:18:09.848Z,100989.19
2018-03-16T20:20:39.752Z,100991.00
2018-03-16T20:23:08.860Z,100989.52
2018-03-16T20:25:38.001Z,100997.61
2018-03-16T20:28:06.363Z,100995.66
2018-03-16T20:30:34.733Z,100995.66
2018-03-16T20:33:03.840Z,101011.00
2018-03-16T20:35:32.241Z,101014.97
2018-03-16T20:38:00.581Z,101020.92
2018-03-16T20:40:29.702Z,101025.63
2018-03-16T20:42:58.600Z,101030.85
2018-03-16T20:45:26.948Z,101033.49
2018-03-16T20:47:56.136Z,101029.95
2018-03-16T20:50:24.517Z,101031.95
2018-03-16T20:52:52.866Z,101034.22
2018-03-16T20:55:21.397Z,101038.86
2018-03-16T20:57:49.732Z,101025.96
2018-03-16T21:00:18.110Z,101037.13
2018-03-16T21:02:46.521Z,101041.23
2018-03-16T21:05:15.637Z,101046.52
2018-03-16T21:07:44.761Z,101050.70
2018-03-16T21:10:13.188Z,101053.63
2018-03-16T21:12:41.970Z,101047.56
2018-03-16T21:15:11.142Z,101053.41
2018-03-16T21:17:39.566Z,101061.13
2018-03-16T21:20:08.067Z,101049.20
2018-03-16T21:22:37.224Z,101053.58
2018-03-16T21:25:05.589Z,101068.70
2018-03-16T21:27:33.962Z,101064.88
2018-03-16T21:30:03.082Z,101054.55
2018-03-16T21:32:31.532Z,101059.28
2018-03-16T21:35:00.996Z,101070.11
2018-03-16T21:37:29.361Z,101060.55
2018-03-16T21:39:57.718Z,101073.26
2018-03-16T21:42:26.180Z,101073.11
2018-03-16T21:44:55.411Z,101066.39
2018-03-16T21:47:23.888Z,101071.28
2018-03-16T21:49:52.226Z,101064.59
2018-03-16T21:52:20.552Z,101084.02
2018-03-16T21:54:48.914Z,101072.19
2018-03-16T21:57:18.022Z,101074.91
2018-03-16T21:59:46.367Z,101079.84
2018-03-16T22:02:14.696Z,101076.37
2018-03-16T22:04:43.071Z,101075.97
2018-03-16T22:07:14.936Z,101068.40
2018-03-16T22:09:43.542Z,101075.97
2018-03-16T22:12:11.866Z,101075.62
2018-03-16T22:14:40.206Z,101076.31
2018-03-16T22:17:08.524Z,101085.97
2018-03-16T22:19:36.920Z,101063.52
2018-03-16T22:22:06.170Z,101080.00
2018-03-16T22:24:34.570Z,101075.20
2018-03-16T22:27:02.908Z,101075.55
2018-03-16T22:29:32.011Z,101074.36
2018-03-16T22:32:00.347Z,101074.09
2018-03-16T22:34:28.664Z,101079.78
2018-03-16T22:36:57.833Z,101083.74
2018-03-16T22:39:26.172Z,101080.62
2018-03-16T22:41:54.568Z,101074.51
2018-03-16T22:44:22.877Z,101080.27
2018-03-16T22:46:51.397Z,101078.61
2018-03-16T22:49:19.705Z,101075.92
2018-03-16T22:51:48.021Z,101086.81
2018-03-16T22:54:16.315Z,101073.89
2018-03-16T22:56:44.677Z,101080.70
2018-03-16T22:59:13.784Z,101081.54
2018-03-16T23:01:42.177Z,101082.59
2018-03-16T23:04:11.244Z,101085.01
2018-03-16T23:06:39.550Z,101083.83
2018-03-16T23:09:07.864Z,101091.09
2018-03-16T23:11:36.188Z,101089.23
2018-03-16T23:14:04.493Z,101089.70
2018-03-16T23:16:33.575Z,101090.34
2018-03-16T23:19:01.883Z,101093.95
2018-03-16T23:21:30.981Z,101091.94
2018-03-16T23:24:00.145Z,101090.55
2018-03-16T23:26:28.492Z,101104.08
2018-03-16T23:28:56.795Z,101095.27
2018-03-16T23:31:25.116Z,101098.41
2018-03-16T23:33:55.501Z,101091.92
2018-03-16T23:36:23.815Z,101102.63
2018-03-16T23:38:54.407Z,101100.12
2018-03-16T23:41:22.895Z,101098.81
2018-03-16T23:43:51.249Z,101104.08
2018-03-16T23:46:19.682Z,101108.47
2018-03-16T23:48:48.040Z,101110.77
2018-03-16T23:51:16.853Z,101103.55
2018-03-16T23:53:45.250Z,101112.62
2018-03-16T23:56:13.635Z,101109.64
2018-03-16T23:58:42.187Z,101103.19
